Time;durP1;ratioP1;P1;durP2;ratioP2;P2;SDS_P1;SDS_P2;PMS_P1;PMS_P2;Temp;Humidity;BMP_temperature;BMP_pressure;BME280_temperature;BME280_humidity;BME280_pressure;Samples;Min_cycle;Max_cycle;Signal;HPM_P1;HPM_P2
2021/10/07 00:00:57;;;;;;;12.18;3.00;;;8.90;80.70;;;;;;1846992;78;21033;-50
2021/10/07 00:03:25;;;;;;;4.95;2.37;;;8.90;80.70;;;;;;1847012;78;21006;-48
2021/10/07 00:05:55;;;;;;;14.87;2.77;;;8.90;80.80;;;;;;1847107;78;21134;-50
2021/10/07 00:08:25;;;;;;;17.95;3.37;;;8.90;80.80;;;;;;1847054;76;21054;-47
2021/10/07 00:10:54;;;;;;;12.68;4.08;;;8.90;81.00;;;;;;1847099;77;21103;-50
2021/10/07 00:13:24;;;;;;;13.28;3.15;;;8.90;80.90;;;;;;1847174;77;21111;-48
2021/10/07 00:15:53;;;;;;;13.78;3.33;;;8.90;81.00;;;;;;1847250;76;21010;-50
2021/10/07 00:18:23;;;;;;;13.58;3.33;;;8.90;81.00;;;;;;1847153;78;21026;-49
2021/10/07 00:20:53;;;;;;;13.08;3.95;;;8.90;81.10;;;;;;1847168;76;21041;-46
2021/10/07 00:23:26;;;;;;;11.38;3.37;;;8.90;81.10;;;;;;1847135;77;21054;-46
2021/10/07 00:25:54;;;;;;;7.67;3.10;;;8.90;81.20;;;;;;1847180;77;21483;-49
2021/10/07 00:28:24;;;;;;;12.20;3.37;;;8.90;81.20;;;;;;1884576;75;21039;-48
2021/10/07 00:30:57;;;;;;;11.15;3.22;;;9.00;81.30;;;;;;1891764;76;21057;-49
2021/10/07 00:33:32;;;;;;;9.75;3.17;;;8.90;81.50;;;;;;1891755;75;21084;-50
2021/10/07 00:36:09;;;;;;;9.90;2.85;;;8.90;81.40;;;;;;1891092;75;21002;-47
2021/10/07 00:41:20;;;;;;;15.08;3.70;;;8.90;81.40;;;;;;1891715;76;21046;-48
2021/10/07 00:43:49;;;;;;;18.87;4.15;;;8.90;81.60;;;;;;1891803;76;21104;-47
2021/10/07 00:46:19;;;;;;;6.75;2.98;;;8.90;81.70;;;;;;1891829;75;21022;-48
2021/10/07 00:48:48;;;;;;;11.55;2.52;;;8.90;81.70;;;;;;1891762;76;21096;-50
2021/10/07 00:51:18;;;;;;;11.12;2.87;;;8.90;81.80;;;;;;1891609;76;21092;-50
2021/10/07 00:53:47;;;;;;;7.78;2.47;;;8.90;81.90;;;;;;1891766;76;21054;-50
2021/10/07 00:56:19;;;;;;;9.03;4.08;;;8.90;82.00;;;;;;1891649;75;21027;-50
2021/10/07 00:58:48;;;;;;;11.03;3.27;;;8.90;81.80;;;;;;1891484;75;21092;-48
2021/10/07 01:01:17;;;;;;;8.40;2.92;;;8.90;81.90;;;;;;1891575;75;21007;-49
2021/10/07 01:03:46;;;;;;;12.58;4.72;;;8.90;82.00;;;;;;1891539;76;21151;-49
2021/10/07 01:06:15;;;;;;;7.30;2.52;;;8.90;82.00;;;;;;1891668;76;21042;-49
2021/10/07 01:08:45;;;;;;;7.10;2.40;;;8.90;82.20;;;;;;1891570;76;21030;-47
2021/10/07 01:11:14;;;;;;;8.03;2.85;;;8.90;82.20;;;;;;1891450;75;21034;-48
2021/10/07 01:13:44;;;;;;;13.93;3.92;;;8.90;82.10;;;;;;1891620;75;21039;-50
2021/10/07 01:16:16;;;;;;;11.85;3.15;;;8.90;82.20;;;;;;1891517;75;21092;-48
2021/10/07 01:18:45;;;;;;;12.07;3.15;;;8.90;82.40;;;;;;1891655;75;20998;-51
2021/10/07 01:21:16;;;;;;;11.05;4.20;;;8.90;82.40;;;;;;1891524;76;21046;-50
2021/10/07 01:23:46;;;;;;;5.47;2.65;;;8.90;82.40;;;;;;1891548;76;21092;-46
2021/10/07 01:26:19;;;;;;;8.63;2.98;;;8.90;82.50;;;;;;1891545;76;21516;-50
2021/10/07 01:28:50;;;;;;;14.53;3.55;;;8.90;82.60;;;;;;1856533;76;21069;-48
2021/10/07 01:31:20;;;;;;;6.03;2.30;;;8.80;82.70;;;;;;1847093;77;21005;-50
2021/10/07 01:33:50;;;;;;;6.17;2.98;;;8.80;82.70;;;;;;1847124;78;21041;-49
2021/10/07 01:36:19;;;;;;;8.40;2.77;;;8.80;82.90;;;;;;1847120;76;21033;-50
2021/10/07 01:38:49;;;;;;;10.95;2.92;;;8.80;82.70;;;;;;1847062;76;21025;-51
2021/10/07 01:41:18;;;;;;;7.62;2.67;;;8.80;82.70;;;;;;1846951;78;21010;-48
2021/10/07 01:43:47;;;;;;;13.30;2.80;;;8.80;82.70;;;;;;1847030;78;21033;-50
2021/10/07 01:46:16;;;;;;;10.70;2.87;;;8.80;82.70;;;;;;1847078;78;21034;-46
2021/10/07 01:48:46;;;;;;;8.00;2.58;;;8.80;82.70;;;;;;1846939;76;21029;-46
2021/10/07 01:51:15;;;;;;;5.30;2.20;;;8.90;82.90;;;;;;1846964;78;21058;-49
2021/10/07 01:53:45;;;;;;;6.00;2.98;;;8.80;82.90;;;;;;1846994;78;21045;-47
2021/10/07 01:56:14;;;;;;;6.33;2.55;;;8.80;82.90;;;;;;1847069;78;21030;-49
2021/10/07 01:58:44;;;;;;;6.33;2.83;;;8.80;83.20;;;;;;1847078;76;21093;-49
2021/10/07 02:01:13;;;;;;;7.83;2.60;;;8.80;83.00;;;;;;1847050;76;21145;-47
2021/10/07 02:03:43;;;;;;;6.15;2.83;;;8.80;83.20;;;;;;1847189;78;21013;-49
2021/10/07 02:06:12;;;;;;;9.68;2.15;;;8.80;83.40;;;;;;1847063;77;21037;-48
2021/10/07 02:08:42;;;;;;;7.87;2.83;;;8.80;83.40;;;;;;1847131;78;21085;-46
2021/10/07 02:11:12;;;;;;;5.40;2.27;;;8.80;83.40;;;;;;1847069;76;21097;-50
2021/10/07 02:13:41;;;;;;;8.58;2.83;;;8.80;83.40;;;;;;1847189;78;21471;-47
2021/10/07 02:16:10;;;;;;;6.55;2.55;;;8.80;83.50;;;;;;1847104;78;21033;-46
2021/10/07 02:18:40;;;;;;;12.95;3.20;;;8.80;83.60;;;;;;1847255;76;21038;-50
2021/10/07 02:21:09;;;;;;;6.17;2.20;;;8.80;83.30;;;;;;1847218;78;21089;-47
2021/10/07 02:23:39;;;;;;;5.45;2.10;;;8.80;83.50;;;;;;1847120;76;21037;-47
2021/10/07 02:26:08;;;;;;;8.80;2.83;;;8.80;83.40;;;;;;1847071;76;21088;-47
2021/10/07 02:28:38;;;;;;;4.17;2.50;;;8.80;83.50;;;;;;1858912;75;21243;-51
2021/10/07 02:31:08;;;;;;;6.20;2.70;;;8.80;83.50;;;;;;1872728;76;21050;-51
2021/10/07 02:33:37;;;;;;;10.35;2.50;;;8.80;83.40;;;;;;1872794;77;21101;-47
2021/10/07 02:36:07;;;;;;;9.48;2.77;;;8.80;83.50;;;;;;1872889;77;21003;-48
2021/10/07 02:38:36;;;;;;;16.27;3.02;;;8.80;83.70;;;;;;1872910;76;21026;-50
2021/10/07 02:41:05;;;;;;;10.78;2.98;;;8.80;83.40;;;;;;1872836;77;21029;-49
2021/10/07 02:43:35;;;;;;;5.15;2.47;;;8.80;83.60;;;;;;1872895;77;21101;-48
2021/10/07 02:46:04;;;;;;;6.67;2.75;;;8.80;83.60;;;;;;1872891;77;21047;-50
2021/10/07 02:48:34;;;;;;;5.45;1.85;;;8.80;83.60;;;;;;1872855;76;21003;-48
2021/10/07 02:51:04;;;;;;;4.08;2.15;;;8.80;83.60;;;;;;1872846;77;21539;-49
2021/10/07 02:53:34;;;;;;;11.65;3.10;;;8.80;83.70;;;;;;1872890;76;21096;-49
2021/10/07 02:56:04;;;;;;;5.92;2.47;;;8.80;83.60;;;;;;1872871;77;21027;-47
2021/10/07 02:58:34;;;;;;;6.37;2.58;;;8.80;83.80;;;;;;1873070;76;21039;-49
2021/10/07 03:01:04;;;;;;;8.30;2.52;;;8.80;83.70;;;;;;1872879;77;21003;-50
2021/10/07 03:03:33;;;;;;;7.80;3.00;;;8.70;83.60;;;;;;1872955;77;21059;-50
2021/10/07 03:06:03;;;;;;;5.85;2.70;;;8.70;83.70;;;;;;1872841;77;21031;-49
2021/10/07 03:08:32;;;;;;;7.55;2.70;;;8.70;83.60;;;;;;1872841;76;21153;-49
2021/10/07 03:11:01;;;;;;;6.50;2.08;;;8.70;83.90;;;;;;1872838;77;21078;-49
2021/10/07 03:13:31;;;;;;;4.62;1.77;;;8.80;83.90;;;;;;1872885;76;21034;-47
2021/10/07 03:16:00;;;;;;;7.28;2.42;;;8.80;84.00;;;;;;1872827;77;21007;-47
2021/10/07 03:18:30;;;;;;;12.33;2.33;;;8.80;83.80;;;;;;1872852;76;21089;-47
2021/10/07 03:20:59;;;;;;;5.92;2.05;;;8.80;83.90;;;;;;1872869;77;21100;-49
2021/10/07 03:23:29;;;;;;;9.20;2.15;;;8.80;83.80;;;;;;1873010;75;21155;-49
2021/10/07 03:25:59;;;;;;;10.20;2.35;;;8.80;83.90;;;;;;1872905;77;21035;-50
2021/10/07 03:28:28;;;;;;;5.47;2.02;;;8.80;83.90;;;;;;1868573;76;21053;-48
2021/10/07 03:30:58;;;;;;;12.95;2.65;;;8.70;83.90;;;;;;1846971;77;21042;-49
2021/10/07 03:33:27;;;;;;;18.00;2.15;;;8.80;83.90;;;;;;1847083;76;21116;-46
2021/10/07 03:35:56;;;;;;;5.20;1.67;;;8.80;84.10;;;;;;1847113;76;21057;-48
2021/10/07 03:38:29;;;;;;;4.85;2.10;;;8.70;84.10;;;;;;1847165;78;21311;-48
2021/10/07 03:40:57;;;;;;;9.80;1.72;;;8.70;83.90;;;;;;1847032;76;21041;-48
2021/10/07 03:43:27;;;;;;;10.18;1.72;;;8.70;83.90;;;;;;1847056;76;21037;-47
2021/10/07 03:45:56;;;;;;;8.43;2.08;;;8.70;83.90;;;;;;1847065;76;21088;-49
2021/10/07 03:48:26;;;;;;;3.52;1.90;;;8.70;83.80;;;;;;1846952;77;21006;-50
2021/10/07 03:50:55;;;;;;;7.42;2.05;;;8.80;83.90;;;;;;1846884;76;21120;-50
2021/10/07 03:53:27;;;;;;;11.83;2.15;;;8.80;83.90;;;;;;1846951;76;21062;-48
2021/10/07 03:55:56;;;;;;;10.38;2.08;;;8.80;84.10;;;;;;1846920;76;21112;-47
2021/10/07 03:58:26;;;;;;;7.60;2.40;;;8.80;84.00;;;;;;1847027;76;21099;-50
2021/10/07 04:00:55;;;;;;;6.85;2.95;;;8.80;83.90;;;;;;1846961;78;21091;-51
2021/10/07 04:03:25;;;;;;;9.30;2.20;;;8.80;83.90;;;;;;1846954;76;21005;-47
2021/10/07 04:05:57;;;;;;;6.83;2.37;;;8.80;84.10;;;;;;1846798;77;21115;-48
2021/10/07 04:08:26;;;;;;;8.38;2.70;;;8.80;83.90;;;;;;1847002;76;21194;-50
2021/10/07 04:10:55;;;;;;;2.52;1.35;;;8.80;84.00;;;;;;1847003;76;21034;-50
2021/10/07 04:13:25;;;;;;;6.45;1.80;;;8.80;84.80;;;;;;1847053;76;21112;-47
2021/10/07 04:15:55;;;;;;;5.72;2.85;;;8.80;84.00;;;;;;1847017;78;21125;-49
2021/10/07 04:18:24;;;;;;;8.53;2.15;;;8.70;84.00;;;;;;1846896;78;21034;-50
2021/10/07 04:20:54;;;;;;;2.75;1.27;;;8.80;84.00;;;;;;1846959;76;21033;-47
2021/10/07 04:23:23;;;;;;;5.20;1.65;;;8.80;84.10;;;;;;1846970;77;21112;-47
2021/10/07 04:25:52;;;;;;;6.87;2.10;;;8.70;84.10;;;;;;1847068;76;21080;-48
2021/10/07 04:28:22;;;;;;;2.22;1.80;;;8.80;84.30;;;;;;1846949;77;21021;-49
2021/10/07 04:30:51;;;;;;;3.10;1.65;;;8.80;84.00;;;;;;1885973;75;21038;-49
2021/10/07 04:33:21;;;;;;;12.63;2.33;;;8.80;83.90;;;;;;1891455;76;21030;-47
2021/10/07 04:35:50;;;;;;;8.78;2.47;;;8.70;83.90;;;;;;1891461;76;21034;-47
2021/10/07 04:38:20;;;;;;;9.30;3.92;;;8.80;83.80;;;;;;1891431;76;21109;-49
2021/10/07 04:40:49;;;;;;;5.80;2.20;;;8.80;83.80;;;;;;1891538;76;21034;-50
2021/10/07 04:43:18;;;;;;;11.75;2.95;;;8.80;83.90;;;;;;1891469;76;21026;-49
2021/10/07 04:45:48;;;;;;;2.30;1.05;;;8.80;83.80;;;;;;1891523;76;21542;-48
2021/10/07 04:48:17;;;;;;;4.08;2.80;;;8.80;83.90;;;;;;1891458;75;21030;-48
2021/10/07 04:50:47;;;;;;;4.67;1.45;;;8.80;83.80;;;;;;1891540;76;21022;-49
2021/10/07 04:53:16;;;;;;;11.28;2.58;;;8.80;83.70;;;;;;1891529;76;21034;-49
2021/10/07 04:55:46;;;;;;;12.60;3.02;;;8.80;83.60;;;;;;1891548;76;21141;-48
2021/10/07 04:58:15;;;;;;;5.72;2.50;;;8.80;83.60;;;;;;1891469;76;21026;-50
2021/10/07 05:00:45;;;;;;;3.58;1.22;;;8.80;83.40;;;;;;1891421;76;21167;-50
2021/10/07 05:03:14;;;;;;;9.78;2.58;;;8.80;83.30;;;;;;1891452;75;21108;-49
2021/10/07 05:05:44;;;;;;;12.53;2.67;;;8.80;83.40;;;;;;1891525;76;21051;-51
2021/10/07 05:08:13;;;;;;;5.20;2.40;;;8.80;83.50;;;;;;1891358;76;21080;-49
2021/10/07 05:10:44;;;;;;;10.82;2.37;;;8.90;83.40;;;;;;1891514;76;21069;-48
2021/10/07 05:13:14;;;;;;;7.08;2.70;;;8.80;83.40;;;;;;1891502;76;21038;-50
2021/10/07 05:15:43;;;;;;;13.70;2.80;;;8.90;83.50;;;;;;1891656;76;21010;-50
2021/10/07 05:18:12;;;;;;;11.10;2.87;;;8.90;83.40;;;;;;1891527;76;21070;-50
2021/10/07 05:20:44;;;;;;;7.90;1.95;;;8.90;83.50;;;;;;1891499;76;21089;-48
2021/10/07 05:23:13;;;;;;;12.28;3.12;;;8.90;83.40;;;;;;1891576;75;21073;-49
2021/10/07 05:25:43;;;;;;;5.05;2.37;;;8.90;83.50;;;;;;1891465;76;21081;-47
2021/10/07 05:28:12;;;;;;;4.37;2.10;;;8.90;83.80;;;;;;1891343;76;21143;-49
2021/10/07 05:30:41;;;;;;;7.25;2.15;;;8.90;83.60;;;;;;1881022;76;21128;-48
2021/10/07 05:33:11;;;;;;;8.85;3.00;;;8.90;83.40;;;;;;1872722;75;21043;-49
2021/10/07 05:35:40;;;;;;;13.98;2.70;;;8.90;83.40;;;;;;1872694;77;21030;-47
2021/10/07 05:38:10;;;;;;;5.67;2.80;;;8.90;83.40;;;;;;1872781;76;21097;-50
2021/10/07 05:40:39;;;;;;;7.80;1.98;;;8.90;83.30;;;;;;1872735;77;21109;-49
2021/10/07 05:43:11;;;;;;;6.42;1.67;;;8.90;83.10;;;;;;1872868;76;21047;-47
2021/10/07 05:45:41;;;;;;;6.55;2.10;;;8.90;83.30;;;;;;1872619;76;21137;-47
2021/10/07 05:48:11;;;;;;;8.15;2.08;;;8.90;83.10;;;;;;1872911;76;21027;-48
2021/10/07 05:50:40;;;;;;;15.38;4.75;;;8.90;83.00;;;;;;1872826;75;21089;-48
2021/10/07 05:53:10;;;;;;;12.73;3.50;;;8.90;83.10;;;;;;1872794;77;21108;-47
2021/10/07 05:55:40;;;;;;;6.65;3.02;;;8.90;83.10;;;;;;1872723;77;21034;-50
2021/10/07 05:58:09;;;;;;;6.65;2.05;;;9.00;83.10;;;;;;1872809;77;21084;-50
2021/10/07 06:00:38;;;;;;;5.65;2.45;;;9.00;82.80;;;;;;1872860;77;21023;-48
2021/10/07 06:03:11;;;;;;;7.00;2.17;;;9.00;82.80;;;;;;1872696;75;21043;-49
2021/10/07 06:05:41;;;;;;;11.57;2.30;;;9.00;82.70;;;;;;1872741;77;21035;-50
2021/10/07 06:08:10;;;;;;;9.10;2.62;;;9.00;82.60;;;;;;1872828;77;21027;-50
2021/10/07 06:10:39;;;;;;;6.12;3.27;;;9.00;82.80;;;;;;1872899;77;21035;-50
2021/10/07 06:13:09;;;;;;;8.90;2.47;;;9.10;82.80;;;;;;1872786;76;21034;-49
2021/10/07 06:15:38;;;;;;;8.33;2.02;;;9.10;82.80;;;;;;1872845;76;21007;-48
2021/10/07 06:18:08;;;;;;;13.72;2.95;;;9.10;81.90;;;;;;1872882;77;21067;-49
2021/10/07 06:20:38;;;;;;;11.00;2.45;;;9.10;82.10;;;;;;1872827;75;21031;-48
2021/10/07 06:23:08;;;;;;;14.20;3.02;;;9.10;81.90;;;;;;1872808;77;21096;-48
2021/10/07 06:25:38;;;;;;;9.53;3.22;;;9.10;82.10;;;;;;1872803;77;21043;-50
2021/10/07 06:28:08;;;;;;;6.83;2.87;;;9.10;82.20;;;;;;1872871;76;20995;-50
2021/10/07 06:30:38;;;;;;;10.85;2.40;;;9.10;82.10;;;;;;1878052;75;21156;-47
2021/10/07 06:33:07;;;;;;;12.63;2.92;;;9.20;82.10;;;;;;1891695;76;21105;-49
2021/10/07 06:35:37;;;;;;;10.55;3.22;;;9.20;81.80;;;;;;1891628;76;21092;-50
2021/10/07 06:38:07;;;;;;;8.80;2.70;;;9.20;82.00;;;;;;1891710;75;21178;-46
2021/10/07 06:40:37;;;;;;;9.15;2.85;;;9.20;81.90;;;;;;1891694;76;21026;-49
2021/10/07 06:43:06;;;;;;;5.20;1.57;;;9.30;81.80;;;;;;1891751;76;21148;-51
2021/10/07 06:45:36;;;;;;;4.80;2.60;;;9.30;81.00;;;;;;1891569;76;21035;-48
2021/10/07 06:48:06;;;;;;;7.53;2.60;;;9.30;81.30;;;;;;1891566;76;21034;-48
2021/10/07 06:50:35;;;;;;;13.98;3.95;;;9.30;81.50;;;;;;1891472;75;21127;-48
2021/10/07 06:53:04;;;;;;;11.57;3.37;;;9.30;81.60;;;;;;1891374;76;21084;-48
2021/10/07 06:55:34;;;;;;;5.12;2.35;;;9.40;81.50;;;;;;1891419;76;21026;-51
2021/10/07 06:58:04;;;;;;;9.73;2.58;;;9.40;81.20;;;;;;1907770;74;21151;-48
2021/10/07 07:00:45;;;;;;;10.72;1.92;;;9.40;81.00;;;;;;1923743;74;21089;-49
2021/10/07 07:03:23;;;;;;;8.28;2.65;;;9.40;80.50;;;;;;1922548;74;20999;-47
2021/10/07 07:06:07;;;;;;;5.35;1.87;;;9.50;80.70;;;;;;1924505;74;21084;-47
2021/10/07 07:08:46;;;;;;;8.20;3.17;;;9.50;80.00;;;;;;1923671;74;21100;-46
2021/10/07 07:11:27;;;;;;;15.80;2.72;;;9.50;80.60;;;;;;1924045;74;21045;-49
2021/10/07 07:13:56;;;;;;;7.53;2.17;;;9.60;81.50;;;;;;1924621;74;21105;-48
2021/10/07 07:16:26;;;;;;;9.20;2.30;;;9.60;80.30;;;;;;1921183;74;21092;-48
2021/10/07 07:18:55;;;;;;;9.10;2.17;;;9.60;80.10;;;;;;1923270;74;21083;-51
2021/10/07 07:21:28;;;;;;;4.92;2.58;;;9.70;80.30;;;;;;1923428;74;21551;-49
2021/10/07 07:23:57;;;;;;;8.88;3.05;;;9.70;80.30;;;;;;1923922;73;21147;-49
2021/10/07 07:26:26;;;;;;;11.20;3.00;;;9.70;79.90;;;;;;1923935;74;21468;-49
2021/10/07 07:28:56;;;;;;;7.65;1.67;;;9.80;79.80;;;;;;1914408;74;21078;-49
2021/10/07 07:31:26;;;;;;;3.87;1.98;;;9.80;79.60;;;;;;1914421;74;21106;-50
2021/10/07 07:33:56;;;;;;;4.03;2.08;;;9.80;79.80;;;;;;1923713;74;21590;-45
2021/10/07 07:36:26;;;;;;;11.93;3.47;;;9.80;79.30;;;;;;1923644;74;21081;-47
2021/10/07 07:38:56;;;;;;;12.60;2.90;;;9.80;79.40;;;;;;1914113;74;21145;-47
2021/10/07 07:41:25;;;;;;;8.00;2.08;;;9.90;79.30;;;;;;1914155;74;21090;-46
2021/10/07 07:43:55;;;;;;;11.90;3.50;;;9.90;79.50;;;;;;1905064;74;21125;-51
2021/10/07 07:46:24;;;;;;;12.37;1.85;;;10.00;79.70;;;;;;1906120;74;21023;-48
2021/10/07 07:48:54;;;;;;;8.40;2.12;;;10.10;79.50;;;;;;1909738;74;21011;-46
2021/10/07 07:51:23;;;;;;;16.15;4.87;;;10.20;79.40;;;;;;1902887;74;21528;-48
2021/10/07 07:53:53;;;;;;;8.90;2.70;;;10.20;79.80;;;;;;1922286;74;21494;-51
2021/10/07 07:56:22;;;;;;;10.03;2.72;;;10.20;78.90;;;;;;1910812;74;21081;-47
2021/10/07 07:58:53;;;;;;;10.00;4.62;;;10.30;78.80;;;;;;1909723;74;21024;-49
2021/10/07 08:01:24;;;;;;;16.82;5.25;;;10.30;78.40;;;;;;1896435;74;21052;-50
2021/10/07 08:03:53;;;;;;;8.10;2.95;;;10.40;78.40;;;;;;1897156;74;21141;-51
2021/10/07 08:06:22;;;;;;;4.95;1.82;;;10.40;78.00;;;;;;1890555;75;21028;-52
2021/10/07 08:08:52;;;;;;;4.12;1.90;;;10.40;77.70;;;;;;1904681;74;20998;-51
2021/10/07 08:11:21;;;;;;;6.75;1.95;;;10.40;77.50;;;;;;1908413;74;21117;-52
2021/10/07 08:13:51;;;;;;;5.17;1.45;;;10.40;77.40;;;;;;1909594;74;21084;-48
2021/10/07 08:16:20;;;;;;;11.83;2.02;;;10.40;77.80;;;;;;1908710;74;21100;-48
2021/10/07 08:18:50;;;;;;;18.00;3.52;;;10.40;77.90;;;;;;1908644;74;21082;-48
2021/10/07 08:21:19;;;;;;;8.78;4.00;;;10.40;77.90;;;;;;1908068;74;21430;-49
2021/10/07 08:23:49;;;;;;;14.90;2.62;;;10.40;78.20;;;;;;1905199;74;21072;-53
2021/10/07 08:26:18;;;;;;;7.87;2.50;;;10.50;77.20;;;;;;1910624;74;21098;-51
2021/10/07 08:28:47;;;;;;;12.88;2.40;;;10.40;77.40;;;;;;1904368;74;21066;-51
2021/10/07 08:31:16;;;;;;;6.22;3.00;;;10.50;77.70;;;;;;1907034;74;21099;-51
2021/10/07 08:33:46;;;;;;;16.17;4.22;;;10.50;77.40;;;;;;1902980;74;21067;-51
2021/10/07 08:36:16;;;;;;;7.22;2.22;;;10.50;77.80;;;;;;1888996;75;21149;-49
2021/10/07 08:38:45;;;;;;;7.37;1.95;;;10.50;77.40;;;;;;1889361;76;21063;-47
2021/10/07 08:41:15;;;;;;;14.83;2.75;;;10.50;77.20;;;;;;1889884;76;21083;-47
2021/10/07 08:43:47;;;;;;;13.22;2.37;;;10.50;77.20;;;;;;1890642;76;21087;-47
2021/10/07 08:46:17;;;;;;;12.20;2.70;;;10.50;77.40;;;;;;1890833;76;21074;-51
2021/10/07 08:48:46;;;;;;;12.50;3.45;;;10.60;77.70;;;;;;1890710;76;21094;-50
2021/10/07 08:51:16;;;;;;;9.65;2.25;;;10.60;77.80;;;;;;1890660;76;21156;-49
2021/10/07 08:53:45;;;;;;;13.35;2.30;;;10.60;77.20;;;;;;1890729;76;21137;-50
2021/10/07 08:56:15;;;;;;;11.78;3.65;;;10.70;77.00;;;;;;1890695;76;21063;-50
2021/10/07 08:58:44;;;;;;;9.18;3.05;;;10.70;77.40;;;;;;1890688;76;21541;-50
2021/10/07 09:01:33;;;;;;;19.85;3.20;;;10.70;76.70;;;;;;1890705;76;21079;-49
2021/10/07 09:04:16;;;;;;;11.55;3.17;;;10.80;77.10;;;;;;1890802;76;21173;-51
2021/10/07 09:06:51;;;;;;;19.12;3.20;;;10.80;76.80;;;;;;1902800;74;21123;-51
2021/10/07 09:09:22;;;;;;;17.05;3.52;;;10.80;76.50;;;;;;1922192;74;21569;-53
2021/10/07 09:11:53;;;;;;;12.90;3.20;;;10.80;76.20;;;;;;1911737;74;21069;-53
2021/10/07 09:14:34;;;;;;;10.63;3.52;;;10.80;76.70;;;;;;1911874;74;21090;-50
2021/10/07 09:17:04;;;;;;;20.85;7.20;;;10.90;76.90;;;;;;1901382;74;21176;-53
2021/10/07 09:19:41;;;;;;;24.57;4.30;;;10.90;77.00;;;;;;1891463;74;21222;-51
2021/10/07 09:22:25;;;;;;;8.83;3.40;;;11.00;76.70;;;;;;1899316;74;21020;-51
2021/10/07 09:24:57;;;;;;;15.65;3.35;;;11.10;76.70;;;;;;1894302;74;21099;-49
2021/10/07 09:27:31;;;;;;;14.18;3.85;;;11.20;76.20;;;;;;1890718;76;21144;-49
2021/10/07 09:30:03;;;;;;;13.62;3.20;;;11.20;76.30;;;;;;1891120;76;21032;-51
2021/10/07 09:32:41;;;;;;;10.60;3.52;;;11.30;76.00;;;;;;1885150;76;21616;-50
2021/10/07 09:35:10;;;;;;;9.88;2.55;;;11.40;75.80;;;;;;1872040;76;21029;-50
2021/10/07 09:37:41;;;;;;;13.50;3.30;;;11.40;75.30;;;;;;1872140;77;20997;-51
2021/10/07 09:40:17;;;;;;;8.60;1.60;;;11.50;75.10;;;;;;1880614;75;21079;-49
2021/10/07 09:42:48;;;;;;;14.33;3.85;;;11.50;74.50;;;;;;1871792;77;21028;-49
2021/10/07 09:45:23;;;;;;;20.60;3.30;;;11.50;75.50;;;;;;1871651;77;21726;-49
2021/10/07 09:47:52;;;;;;;;;;;11.50;75.10;;;;;;1874358;77;21100;-47
2021/10/07 09:50:33;;;;;;;11.28;2.08;;;11.60;74.70;;;;;;1871644;76;20166;-49
2021/10/07 09:53:09;;;;;;;13.55;2.45;;;11.60;74.80;;;;;;1871801;75;21044;-49
2021/10/07 09:55:43;;;;;;;28.02;3.75;;;11.70;75.40;;;;;;1894941;75;21079;-50
2021/10/07 09:58:20;;;;;;;15.00;2.80;;;11.70;75.40;;;;;;1890633;75;21011;-47
2021/10/07 10:00:55;;;;;;;16.32;3.58;;;11.80;75.20;;;;;;1886288;74;21025;-51
2021/10/07 10:03:25;;;;;;;17.57;3.15;;;11.80;75.30;;;;;;1892575;75;21039;-51
2021/10/07 10:05:56;;;;;;;15.03;3.12;;;11.80;75.00;;;;;;1886160;75;21024;-51
2021/10/07 10:08:26;;;;;;;14.65;3.10;;;11.90;75.30;;;;;;1883605;74;21060;-52
2021/10/07 10:10:56;;;;;;;17.82;3.67;;;11.90;75.40;;;;;;1871945;77;21115;-51
2021/10/07 10:13:25;;;;;;;22.48;3.17;;;11.90;75.30;;;;;;1892683;75;21070;-50
2021/10/07 10:15:54;;;;;;;17.32;3.40;;;11.90;74.50;;;;;;1904484;75;21091;-52
2021/10/07 10:18:24;;;;;;;14.55;3.25;;;11.90;74.50;;;;;;1904524;75;21063;-52
2021/10/07 10:20:55;;;;;;;8.80;2.42;;;11.90;74.30;;;;;;1904729;75;21078;-52
2021/10/07 10:23:26;;;;;;;17.67;3.98;;;11.90;74.40;;;;;;1904455;75;21094;-52
2021/10/07 10:26:01;;;;;;;17.52;3.05;;;11.90;74.30;;;;;;1904583;74;21093;-50
2021/10/07 10:28:33;;;;;;;22.52;3.58;;;12.00;74.60;;;;;;1890926;75;21102;-53
2021/10/07 10:31:07;;;;;;;26.77;5.40;;;12.00;74.60;;;;;;1883994;74;21083;-51
2021/10/07 10:33:39;;;;;;;14.45;2.72;;;12.00;74.30;;;;;;1896321;74;21059;-52
2021/10/07 10:36:34;;;;;;;14.68;3.22;;;12.00;74.10;;;;;;1909642;74;21159;-51
2021/10/07 10:39:15;;;;;;;16.93;3.70;;;12.00;74.00;;;;;;1922750;74;21136;-50
2021/10/07 10:41:53;;;;;;;21.50;3.67;;;12.00;73.60;;;;;;1923965;74;21504;-51
2021/10/07 10:44:31;;;;;;;12.68;3.17;;;12.00;74.10;;;;;;1908452;74;22193;-51
2021/10/07 10:47:09;;;;;;;15.43;2.58;;;12.10;74.30;;;;;;1907783;74;21070;-51
2021/10/07 10:49:52;;;;;;;16.93;2.67;;;12.10;73.90;;;;;;1908005;74;21062;-46
2021/10/07 10:52:40;;;;;;;20.35;4.60;;;12.10;74.20;;;;;;1907085;74;21092;-50
2021/10/07 10:55:18;;;;;;;14.60;2.87;;;12.20;74.50;;;;;;1907611;74;21086;-51
2021/10/07 10:57:53;;;;;;;11.53;2.85;;;12.20;74.00;;;;;;1908461;74;21088;-51
2021/10/07 11:00:30;;;;;;;19.80;2.87;;;12.30;73.90;;;;;;1908373;74;21335;-49
2021/10/07 11:03:26;;;;;;;10.75;2.92;;;12.30;74.00;;;;;;1914275;74;21007;-52
2021/10/07 11:06:03;;;;;;;9.63;2.93;;;12.30;73.20;;;;;;1924267;74;21121;-50
2021/10/07 11:08:33;;;;;;;21.82;3.30;;;12.30;73.10;;;;;;1923897;74;21162;-50
2021/10/07 11:11:04;;;;;;;14.73;3.05;;;12.30;73.10;;;;;;1921589;74;21078;-49
2021/10/07 11:13:35;;;;;;;21.37;2.98;;;12.30;72.60;;;;;;1918057;74;20987;-52
2021/10/07 11:16:06;;;;;;;17.75;3.45;;;12.30;72.30;;;;;;1923820;74;21067;-50
2021/10/07 11:18:37;;;;;;;21.85;7.15;;;12.30;72.90;;;;;;1924022;74;21026;-51
2021/10/07 11:21:17;;;;;;;19.85;4.08;;;12.40;73.50;;;;;;1923862;74;21054;-50
2021/10/07 11:23:54;;;;;;;15.83;4.03;;;12.50;73.60;;;;;;1924017;74;21082;-50
2021/10/07 11:26:22;;;;;;;26.02;3.67;;;12.60;73.50;;;;;;1907134;74;21093;-50
2021/10/07 11:28:52;;;;;;;24.67;5.67;;;12.60;73.10;;;;;;1890823;76;21113;-51
2021/10/07 11:31:29;;;;;;;12.90;2.80;;;12.70;72.90;;;;;;1900061;74;21014;-49
2021/10/07 11:34:00;;;;;;;12.53;3.35;;;12.70;72.80;;;;;;1901241;74;21025;-51
2021/10/07 11:36:31;;;;;;;6.83;2.25;;;12.70;72.30;;;;;;1885873;75;21452;-51
2021/10/07 11:39:01;;;;;;;20.08;3.52;;;12.70;71.70;;;;;;1881415;76;21085;-52
2021/10/07 11:41:37;;;;;;;19.80;3.50;;;12.70;72.70;;;;;;1881731;75;21002;-50
2021/10/07 11:44:05;;;;;;;14.75;2.83;;;12.70;72.90;;;;;;1880969;76;21010;-53
2021/10/07 11:46:39;;;;;;;12.47;2.80;;;12.70;73.10;;;;;;1882267;76;21073;-50
2021/10/07 11:49:09;;;;;;;24.80;3.27;;;12.80;72.60;;;;;;1882364;76;21029;-51
2021/10/07 11:51:39;;;;;;;17.37;3.98;;;12.80;73.00;;;;;;1882444;76;21022;-49
2021/10/07 11:54:08;;;;;;;19.20;3.15;;;12.80;72.60;;;;;;1882253;76;21001;-50
2021/10/07 11:56:38;;;;;;;12.65;2.70;;;12.80;72.70;;;;;;1882498;76;21002;-48
2021/10/07 11:59:12;;;;;;;17.90;2.95;;;12.80;72.30;;;;;;1882365;76;21018;-50
2021/10/07 12:01:41;;;;;;;20.97;3.58;;;12.80;72.80;;;;;;1882251;76;21026;-48
2021/10/07 12:04:12;;;;;;;17.60;3.15;;;12.80;72.50;;;;;;1882269;75;21026;-51
2021/10/07 12:06:41;;;;;;;16.50;3.05;;;12.80;72.10;;;;;;1882120;76;20999;-48
2021/10/07 12:09:16;;;;;;;19.70;3.65;;;12.80;72.40;;;;;;1882082;76;21022;-48
2021/10/07 12:11:45;;;;;;;;;;;12.80;72.60;;;;;;1884993;76;21033;-47
2021/10/07 12:14:14;;;;;;;24.05;3.45;;;12.90;72.20;;;;;;1882173;76;20094;-47
2021/10/07 12:16:44;;;;;;;11.48;2.40;;;12.80;72.70;;;;;;1882195;76;21029;-48
2021/10/07 12:19:22;;;;;;;8.00;2.30;;;12.80;72.30;;;;;;1882238;75;21077;-46
2021/10/07 12:21:48;;;;;;;19.07;3.75;;;12.90;71.90;;;;;;1881231;76;21096;-49
2021/10/07 12:24:18;;;;;;;10.50;2.77;;;12.80;71.80;;;;;;1881586;76;21487;-50
2021/10/07 12:26:52;;;;;;;18.82;3.67;;;12.80;71.80;;;;;;1881681;76;21483;-51
2021/10/07 12:29:26;;;;;;;20.72;4.05;;;12.90;72.10;;;;;;1882191;76;21026;-50
2021/10/07 12:32:03;;;;;;;8.88;2.17;;;12.90;72.20;;;;;;1882455;76;21113;-50
2021/10/07 12:34:35;;;;;;;12.20;1.90;;;12.90;71.60;;;;;;1886025;75;21136;-51
2021/10/07 12:37:10;;;;;;;10.15;1.92;;;12.90;71.30;;;;;;1891529;76;21539;-49
2021/10/07 12:39:41;;;;;;;14.00;2.92;;;12.90;71.20;;;;;;1891672;76;21054;-50
2021/10/07 12:42:15;;;;;;;7.12;2.25;;;12.90;71.30;;;;;;1890137;75;21476;-50
2021/10/07 12:44:55;;;;;;;11.40;2.65;;;12.90;71.20;;;;;;1891712;76;21084;-49
2021/10/07 12:47:30;;;;;;;16.60;3.83;;;12.90;71.50;;;;;;1891338;76;21097;-51
2021/10/07 12:50:02;;;;;;;16.15;3.95;;;12.90;71.60;;;;;;1891561;76;21046;-48
2021/10/07 12:52:38;;;;;;;12.18;3.42;;;12.90;72.10;;;;;;1890001;75;21046;-50
2021/10/07 12:55:18;;;;;;;23.55;5.67;;;12.90;72.10;;;;;;1891356;75;21147;-49
2021/10/07 12:57:52;;;;;;;20.55;5.58;;;12.90;72.20;;;;;;1891489;76;21509;-46
2021/10/07 13:00:33;;;;;;;18.42;5.15;;;12.90;72.90;;;;;;1891487;75;21117;-47
2021/10/07 13:03:02;;;;;;;28.70;4.83;;;12.90;72.70;;;;;;1888764;75;21104;-50
2021/10/07 13:05:37;;;;;;;21.62;4.45;;;12.90;72.50;;;;;;1891432;76;21034;-47
2021/10/07 13:08:08;;;;;;;12.55;3.65;;;12.90;72.70;;;;;;1891476;76;21096;-50
2021/10/07 13:10:46;;;;;;;16.65;4.10;;;12.90;72.60;;;;;;1891447;76;21115;-49